createdAt,value
2022-07-28T00:00:33.753Z,20.12
2022-07-28T00:03:36.930Z,19.99
2022-07-28T00:06:39.581Z,19.90
2022-07-28T00:09:42.244Z,19.78
2022-07-28T00:12:46.330Z,19.74
2022-07-28T00:15:49.095Z,19.66
2022-07-28T00:18:51.870Z,19.59
2022-07-28T00:21:54.844Z,19.52
2022-07-28T00:24:57.468Z,19.44
2022-07-28T00:28:01.695Z,19.41
2022-07-28T00:31:05.543Z,19.37
2022-07-28T00:34:10.213Z,19.29
2022-07-28T00:37:13.418Z,19.18
2022-07-28T00:40:17.653Z,19.10
2022-07-28T00:43:21.710Z,18.98
2022-07-28T00:46:24.819Z,19.05
2022-07-28T00:49:27.439Z,19.01
2022-07-28T00:52:30.393Z,18.94
2022-07-28T00:55:33.090Z,18.82
2022-07-28T00:58:57.187Z,18.80
2022-07-28T01:02:00.075Z,18.81
2022-07-28T01:05:03.119Z,18.89
2022-07-28T01:08:12.141Z,18.96
2022-07-28T01:11:22.578Z,18.79
2022-07-28T01:14:36.473Z,18.73
2022-07-28T01:17:41.616Z,18.53
2022-07-28T01:20:48.174Z,18.33
2022-07-28T01:24:16.587Z,18.34
2022-07-28T01:27:50.495Z,18.25
2022-07-28T01:30:56.689Z,18.21
2022-07-28T01:34:01.205Z,18.18
2022-07-28T01:37:07.461Z,17.94
2022-07-28T01:40:11.488Z,18.05
2022-07-28T01:43:18.315Z,18.13
2022-07-28T01:46:23.020Z,18.07
2022-07-28T01:49:27.601Z,17.93
2022-07-28T01:52:31.592Z,17.90
2022-07-28T01:55:35.733Z,17.84
2022-07-28T01:58:38.995Z,17.87
2022-07-28T02:01:44.450Z,17.74
2022-07-28T02:04:48.560Z,17.73
2022-07-28T02:07:52.420Z,17.61
2022-07-28T02:11:16.102Z,17.59
2022-07-28T02:14:22.011Z,17.49
2022-07-28T02:17:29.347Z,17.46
2022-07-28T02:20:32.669Z,17.55
2022-07-28T02:23:35.408Z,17.52
2022-07-28T02:26:39.590Z,17.52
2022-07-28T02:29:51.095Z,17.46
2022-07-28T02:32:58.214Z,17.48
2022-07-28T02:36:03.660Z,17.48
2022-07-28T02:39:09.210Z,17.46
2022-07-28T02:42:19.199Z,17.40
2022-07-28T02:45:25.392Z,17.43
2022-07-28T02:48:31.325Z,17.45
2022-07-28T02:51:35.268Z,17.41
2022-07-28T02:54:38.475Z,17.37
2022-07-28T02:57:42.660Z,17.42
2022-07-28T03:00:45.805Z,17.48
2022-07-28T03:03:50.375Z,17.46
2022-07-28T03:06:53.098Z,17.49
2022-07-28T03:09:55.998Z,17.48
2022-07-28T03:12:59.630Z,17.34
2022-07-28T03:16:02.495Z,17.28
2022-07-28T03:19:07.214Z,17.21
2022-07-28T03:22:10.325Z,17.18
2022-07-28T03:25:14.802Z,17.12
2022-07-28T03:28:19.614Z,17.18
2022-07-28T03:31:23.165Z,17.16
2022-07-28T03:34:27.500Z,17.18
2022-07-28T03:37:36.950Z,17.18
2022-07-28T03:40:39.961Z,17.12
2022-07-28T03:43:43.157Z,17.21
2022-07-28T03:46:46.142Z,17.15
2022-07-28T03:49:51.083Z,17.09
2022-07-28T03:52:54.294Z,17.19
2022-07-28T03:55:57.155Z,17.14
2022-07-28T03:58:59.804Z,17.12
2022-07-28T04:02:02.840Z,17.06
2022-07-28T04:05:08.207Z,17.13
2022-07-28T04:08:11.310Z,17.10
2022-07-28T04:11:14.166Z,17.09
2022-07-28T04:14:17.977Z,17.17
2022-07-28T04:17:21.306Z,17.19
2022-07-28T04:20:26.684Z,17.27
2022-07-28T04:23:29.437Z,17.40
2022-07-28T04:26:35.175Z,17.49
2022-07-28T04:29:37.980Z,17.65
2022-07-28T04:32:41.271Z,17.84
2022-07-28T04:35:46.324Z,17.99
2022-07-28T04:38:49.005Z,18.13
2022-07-28T04:41:52.291Z,18.05
2022-07-28T04:44:56.201Z,17.99
2022-07-28T04:47:59.771Z,18.04
2022-07-28T04:51:04.142Z,18.12
2022-07-28T04:54:07.137Z,18.12
2022-07-28T04:57:10.584Z,18.16
2022-07-28T05:00:16.544Z,18.27
2022-07-28T05:03:19.911Z,18.49
2022-07-28T05:06:23.981Z,18.58
2022-07-28T05:09:27.136Z,18.65
2022-07-28T05:12:29.934Z,18.78
2022-07-28T05:15:32.832Z,18.85
2022-07-28T05:18:35.741Z,18.98
2022-07-28T05:21:39.982Z,18.95
2022-07-28T05:24:42.601Z,19.08
2022-07-28T05:27:46.781Z,18.89
2022-07-28T05:30:49.622Z,18.88
2022-07-28T05:33:53.004Z,18.97
2022-07-28T05:36:57.120Z,19.07
2022-07-28T05:39:59.957Z,19.24
2022-07-28T05:43:02.641Z,19.39
2022-07-28T05:46:06.035Z,19.56
2022-07-28T05:49:08.764Z,19.66
2022-07-28T05:52:13.355Z,19.68
2022-07-28T05:55:17.706Z,19.83
2022-07-28T05:58:22.396Z,19.97
2022-07-28T06:01:25.261Z,20.14
2022-07-28T06:04:29.588Z,20.18
2022-07-28T06:07:42.677Z,20.18
2022-07-28T06:11:11.899Z,20.31
2022-07-28T06:14:23.978Z,20.29
2022-07-28T06:17:26.801Z,20.45
2022-07-28T06:20:30.325Z,20.36
2022-07-28T06:23:35.382Z,20.51
2022-07-28T06:26:44.343Z,20.50
2022-07-28T06:29:47.976Z,20.55
2022-07-28T06:32:51.612Z,20.72
2022-07-28T06:35:54.256Z,20.95
2022-07-28T06:38:58.542Z,21.02
2022-07-28T06:42:01.708Z,21.25
2022-07-28T06:45:06.017Z,21.41
2022-07-28T06:48:09.192Z,21.60
2022-07-28T06:51:12.065Z,21.57
2022-07-28T06:54:17.563Z,21.50
2022-07-28T06:57:23.059Z,21.60
2022-07-28T07:00:35.934Z,21.69
2022-07-28T07:03:38.719Z,21.67
2022-07-28T07:06:41.512Z,21.71
2022-07-28T07:09:46.193Z,21.98
2022-07-28T07:12:48.845Z,21.97
2022-07-28T07:15:52.893Z,22.06
2022-07-28T07:18:56.164Z,22.20
2022-07-28T07:21:59.010Z,22.16
2022-07-28T07:25:10.377Z,22.17
2022-07-28T07:28:13.015Z,22.43
2022-07-28T07:31:16.444Z,22.65
2022-07-28T07:34:19.300Z,22.71
2022-07-28T07:37:22.766Z,22.99
2022-07-28T07:40:27.117Z,23.10
2022-07-28T07:43:29.776Z,23.21
2022-07-28T07:46:32.663Z,23.34
2022-07-28T07:49:42.355Z,23.23
2022-07-28T07:52:50.052Z,23.40
2022-07-28T07:55:54.427Z,23.58
2022-07-28T07:58:58.687Z,23.66
2022-07-28T08:02:02.028Z,23.74
2022-07-28T08:05:06.158Z,23.83
2022-07-28T08:08:11.694Z,23.86
2022-07-28T08:11:15.907Z,24.07
2022-07-28T08:14:19.046Z,24.07
2022-07-28T08:17:25.956Z,24.43
2022-07-28T08:20:29.376Z,24.61
2022-07-28T08:23:31.883Z,24.78
2022-07-28T08:26:35.855Z,25.12
2022-07-28T08:29:38.826Z,25.17
2022-07-28T08:32:41.533Z,25.22
2022-07-28T08:35:44.614Z,25.31
2022-07-28T08:38:47.497Z,25.30
2022-07-28T08:41:57.149Z,25.27
2022-07-28T08:45:04.877Z,25.52
2022-07-28T08:48:09.953Z,25.88
2022-07-28T08:51:13.623Z,25.75
2022-07-28T08:54:18.203Z,26.14
2022-07-28T08:57:27.744Z,26.43
2022-07-28T09:00:31.626Z,26.42
2022-07-28T09:03:34.744Z,26.49
2022-07-28T09:06:42.160Z,26.53
2022-07-28T09:09:45.250Z,26.76
2022-07-28T09:12:49.449Z,26.67
2022-07-28T09:15:52.469Z,26.87
2022-07-28T09:18:55.281Z,26.84
2022-07-28T09:21:58.301Z,26.85
2022-07-28T09:25:04.011Z,26.44
2022-07-28T09:28:12.060Z,26.86
2022-07-28T09:31:14.996Z,27.18
2022-07-28T09:34:18.505Z,27.52
2022-07-28T09:37:27.392Z,27.50
2022-07-28T09:40:30.886Z,27.45
2022-07-28T09:43:36.660Z,28.12
2022-07-28T09:46:39.982Z,28.47
2022-07-28T09:49:44.446Z,28.30
2022-07-28T09:52:47.693Z,28.20
2022-07-28T09:55:56.512Z,28.18
2022-07-28T09:59:00.922Z,28.00
2022-07-28T10:02:05.726Z,28.39
2022-07-28T10:05:10.931Z,28.75
2022-07-28T10:08:13.622Z,28.82
2022-07-28T10:11:16.774Z,28.93
2022-07-28T10:14:23.509Z,29.07
2022-07-28T10:17:31.318Z,29.17
2022-07-28T10:20:35.406Z,29.05
2022-07-28T10:23:39.913Z,29.14
2022-07-28T10:26:45.626Z,29.19
2022-07-28T10:29:52.538Z,29.64
2022-07-28T10:32:56.313Z,30.25
2022-07-28T10:35:59.409Z,30.43
2022-07-28T10:39:07.776Z,30.71
2022-07-28T10:42:13.064Z,30.53
2022-07-28T10:45:17.849Z,30.97
2022-07-28T10:48:23.892Z,31.22
2022-07-28T10:51:28.243Z,31.03
2022-07-28T10:54:37.265Z,31.30
2022-07-28T10:58:02.113Z,31.40
2022-07-28T11:01:48.224Z,30.86
2022-07-28T11:04:55.335Z,31.70
2022-07-28T11:07:59.729Z,31.91
2022-07-28T11:11:06.757Z,32.48
2022-07-28T11:14:32.352Z,32.66
2022-07-28T11:17:36.716Z,33.19
2022-07-28T11:21:10.924Z,33.61
2022-07-28T11:24:19.409Z,34.28
2022-07-28T11:28:01.099Z,34.55
2022-07-28T11:31:04.227Z,34.38
2022-07-28T11:34:09.179Z,34.43
2022-07-28T11:37:15.162Z,34.76
2022-07-28T11:40:31.779Z,34.16
2022-07-28T11:43:39.728Z,34.10
2022-07-28T11:46:43.545Z,34.32
2022-07-28T11:50:11.770Z,34.61
2022-07-28T11:53:14.697Z,35.00
2022-07-28T11:56:24.132Z,35.19
2022-07-28T11:59:36.423Z,35.56
2022-07-28T12:02:42.031Z,35.55
2022-07-28T12:05:58.124Z,36.58
2022-07-28T12:09:03.291Z,36.88
2022-07-28T12:12:08.453Z,36.46
2022-07-28T12:15:15.910Z,35.60
2022-07-28T12:18:18.711Z,35.63
2022-07-28T12:24:58.267Z,36.05
2022-07-28T12:28:14.480Z,36.69
2022-07-28T12:31:17.595Z,37.25
2022-07-28T12:34:20.527Z,36.60
2022-07-28T12:37:23.552Z,36.85
2022-07-28T12:40:30.772Z,37.05
2022-07-28T12:43:34.558Z,37.47
2022-07-28T12:46:37.739Z,37.84
2022-07-28T12:49:43.312Z,38.53
2022-07-28T12:53:03.722Z,37.20
2022-07-28T12:56:08.314Z,36.99
2022-07-28T12:59:13.545Z,37.04
2022-07-28T13:02:17.686Z,36.32
2022-07-28T13:06:02.235Z,37.19
2022-07-28T13:09:05.757Z,37.34
2022-07-28T13:12:24.264Z,37.95
2022-07-28T13:15:27.097Z,38.18
2022-07-28T13:18:40.313Z,37.67
2022-07-28T13:21:58.793Z,37.77
2022-07-28T13:25:03.698Z,38.09
2022-07-28T13:28:23.038Z,36.87
2022-07-28T13:31:25.834Z,36.82
2022-07-28T13:34:28.479Z,38.02
2022-07-28T13:37:31.581Z,38.00
2022-07-28T13:40:34.316Z,37.05
2022-07-28T13:43:38.659Z,36.96
2022-07-28T13:46:45.310Z,40.42
2022-07-28T13:49:50.762Z,45.29
2022-07-28T13:52:53.716Z,45.48
2022-07-28T13:55:56.496Z,45.84
2022-07-28T13:59:01.903Z,50.71
2022-07-28T14:02:05.477Z,52.02
2022-07-28T14:05:18.254Z,48.71
2022-07-28T14:08:21.089Z,46.95
2022-07-28T14:11:28.260Z,45.46
2022-07-28T14:14:32.620Z,42.29
2022-07-28T14:17:44.938Z,42.39
2022-07-28T14:20:49.260Z,45.85
2022-07-28T14:23:52.079Z,50.32
2022-07-28T14:26:55.189Z,49.76
2022-07-28T14:29:59.394Z,52.75
2022-07-28T14:33:06.505Z,52.57
2022-07-28T14:36:09.272Z,54.13
2022-07-28T14:39:12.721Z,52.06
2022-07-28T14:42:15.446Z,50.51
2022-07-28T14:45:19.803Z,51.41
2022-07-28T14:48:22.634Z,52.26
2022-07-28T14:51:25.321Z,52.45
2022-07-28T14:54:28.741Z,52.58
2022-07-28T14:57:48.848Z,54.58
2022-07-28T15:00:56.185Z,56.13
2022-07-28T15:03:58.840Z,55.94
2022-07-28T15:07:01.596Z,57.16
2022-07-28T15:10:05.120Z,56.28
2022-07-28T15:13:07.904Z,55.14
2022-07-28T15:16:13.335Z,55.48
2022-07-28T15:19:16.089Z,52.37
2022-07-28T15:22:18.679Z,50.80
2022-07-28T15:25:21.723Z,51.44
2022-07-28T15:28:24.373Z,48.73
2022-07-28T15:31:30.303Z,49.54
2022-07-28T15:34:33.351Z,53.27
2022-07-28T15:37:36.040Z,53.22
2022-07-28T15:40:38.975Z,52.96
2022-07-28T15:43:41.553Z,53.32
2022-07-28T15:46:46.660Z,52.30
2022-07-28T15:49:49.825Z,49.68
2022-07-28T15:52:52.860Z,46.42
2022-07-28T15:55:55.544Z,46.20
2022-07-28T15:59:01.340Z,46.98
2022-07-28T16:02:05.352Z,45.53
2022-07-28T16:05:08.728Z,44.25
2022-07-28T16:08:11.594Z,44.35
2022-07-28T16:11:14.517Z,46.28
2022-07-28T16:14:18.082Z,47.69
2022-07-28T16:17:23.134Z,48.99
2022-07-28T16:20:26.308Z,48.65
2022-07-28T16:23:29.688Z,45.90
2022-07-28T16:26:32.568Z,46.16
2022-07-28T16:29:35.566Z,45.59
2022-07-28T16:32:42.930Z,45.29
2022-07-28T16:35:45.984Z,45.59
2022-07-28T16:38:48.530Z,47.32
2022-07-28T16:41:52.806Z,48.08
2022-07-28T16:44:55.657Z,48.70
2022-07-28T16:48:00.821Z,45.80
2022-07-28T16:51:05.356Z,43.76
2022-07-28T16:54:07.986Z,42.39
2022-07-28T16:57:10.802Z,42.16
2022-07-28T17:00:15.455Z,40.29
2022-07-28T17:03:19.519Z,39.74
2022-07-28T17:06:24.318Z,38.89
2022-07-28T17:09:27.319Z,38.19
2022-07-28T17:12:29.940Z,40.62
2022-07-28T17:15:33.165Z,41.22
2022-07-28T17:18:37.294Z,38.60
2022-07-28T17:21:39.947Z,36.37
2022-07-28T17:24:42.826Z,35.23
2022-07-28T17:27:48.227Z,33.95
2022-07-28T17:30:51.114Z,33.48
2022-07-28T17:33:55.188Z,33.03
2022-07-28T17:36:58.154Z,32.47
2022-07-28T17:40:01.138Z,32.06
2022-07-28T17:43:08.786Z,31.62
2022-07-28T17:46:11.842Z,31.35
2022-07-28T17:49:17.173Z,31.05
2022-07-28T17:52:20.081Z,30.70
2022-07-28T17:55:59.965Z,30.57
2022-07-28T17:59:03.868Z,30.44
2022-07-28T18:02:06.816Z,30.29
2022-07-28T18:05:11.334Z,30.24
2022-07-28T18:08:17.039Z,30.25
2022-07-28T18:11:19.807Z,30.08
2022-07-28T18:14:22.642Z,29.97
2022-07-28T18:17:25.506Z,29.76
2022-07-28T18:20:30.078Z,29.55
2022-07-28T18:23:32.897Z,29.41
2022-07-28T18:26:35.504Z,29.34
2022-07-28T18:29:38.999Z,29.35
2022-07-28T18:32:41.662Z,29.47
2022-07-28T18:35:45.695Z,29.49
2022-07-28T18:38:48.413Z,29.43
2022-07-28T18:41:51.298Z,29.40
2022-07-28T18:44:54.388Z,29.26
2022-07-28T18:47:58.756Z,29.10
2022-07-28T18:51:02.732Z,28.93
2022-07-28T18:54:05.476Z,28.67
2022-07-28T18:57:09.084Z,28.48
2022-07-28T19:00:12.519Z,28.24
2022-07-28T19:03:15.364Z,28.05
2022-07-28T19:06:20.624Z,27.98
2022-07-28T19:09:23.622Z,27.95
2022-07-28T19:12:29.425Z,27.82
2022-07-28T19:15:32.761Z,27.66
2022-07-28T19:18:35.558Z,27.51
2022-07-28T19:21:43.098Z,27.44
2022-07-28T19:24:46.577Z,27.41
2022-07-28T19:27:49.298Z,27.43
2022-07-28T19:30:52.717Z,27.39
2022-07-28T19:33:55.527Z,27.36
2022-07-28T19:36:59.600Z,27.36
2022-07-28T19:40:02.389Z,27.22
2022-07-28T19:43:05.311Z,27.12
2022-07-28T19:46:08.101Z,27.05
2022-07-28T19:49:11.913Z,27.02
2022-07-28T19:52:16.324Z,27.06
2022-07-28T19:55:19.010Z,26.98
2022-07-28T19:58:22.353Z,26.94
2022-07-28T20:01:24.922Z,26.95
2022-07-28T20:04:27.741Z,26.93
2022-07-28T20:07:32.918Z,26.91
2022-07-28T20:10:35.752Z,26.58
2022-07-28T20:13:38.385Z,26.14
2022-07-28T20:16:41.227Z,25.96
2022-07-28T20:19:44.289Z,25.88
2022-07-28T20:22:48.297Z,25.52
2022-07-28T20:25:50.957Z,25.18
2022-07-28T20:28:54.191Z,24.99
2022-07-28T20:31:57.047Z,24.83
2022-07-28T20:34:59.924Z,24.75
2022-07-28T20:38:05.938Z,23.86
2022-07-28T20:41:08.570Z,23.79
2022-07-28T20:44:28.240Z,23.52
2022-07-28T20:47:32.710Z,22.74
2022-07-28T20:50:35.839Z,22.21
2022-07-28T20:53:39.878Z,22.03
2022-07-28T20:56:42.566Z,22.05
2022-07-28T20:59:45.250Z,22.34
2022-07-28T21:02:47.926Z,22.44
2022-07-28T21:05:50.874Z,22.53
2022-07-28T21:08:55.850Z,22.67
2022-07-28T21:12:02.114Z,22.70
2022-07-28T21:15:05.277Z,22.61
2022-07-28T21:18:08.146Z,22.68
2022-07-28T21:21:11.061Z,22.51
2022-07-28T21:24:15.449Z,22.25
2022-07-28T21:27:18.581Z,22.24
2022-07-28T21:30:20.419Z,22.05
2022-07-28T21:33:30.486Z,21.91
2022-07-28T21:36:33.359Z,21.87
2022-07-28T21:39:37.757Z,21.83
2022-07-28T21:42:40.538Z,21.73
2022-07-28T21:45:43.536Z,21.71
2022-07-28T21:48:46.370Z,21.72
2022-07-28T21:51:49.202Z,21.71
2022-07-28T21:54:53.152Z,21.73
2022-07-28T21:57:55.810Z,21.70
2022-07-28T22:01:02.560Z,21.65
2022-07-28T22:04:05.833Z,21.48
2022-07-28T22:07:08.463Z,21.45
2022-07-28T22:10:12.797Z,21.40
2022-07-28T22:13:18.612Z,21.41
2022-07-28T22:16:24.108Z,21.24
2022-07-28T22:19:26.719Z,21.24
2022-07-28T22:22:32.984Z,21.13
2022-07-28T22:25:37.334Z,21.00
2022-07-28T22:28:39.924Z,20.91
2022-07-28T22:31:42.605Z,20.81
2022-07-28T22:34:45.463Z,20.74
2022-07-28T22:37:48.091Z,20.78
2022-07-28T22:40:52.018Z,20.75
2022-07-28T22:43:54.596Z,20.83
2022-07-28T22:46:58.055Z,20.93
2022-07-28T22:50:00.973Z,21.03
2022-07-28T22:53:04.073Z,21.01
2022-07-28T22:56:08.273Z,21.03
2022-07-28T22:59:11.481Z,21.15
2022-07-28T23:02:17.640Z,21.18
2022-07-28T23:05:20.216Z,21.23
2022-07-28T23:08:22.968Z,21.27
2022-07-28T23:11:26.984Z,21.35
2022-07-28T23:14:29.849Z,21.42
2022-07-28T23:17:32.610Z,21.40
2022-07-28T23:20:35.239Z,21.47
2022-07-28T23:23:38.325Z,21.49
2022-07-28T23:26:42.464Z,21.60
2022-07-28T23:29:45.214Z,21.58
2022-07-28T23:32:49.991Z,21.55
2022-07-28T23:35:52.756Z,21.44
2022-07-28T23:38:55.774Z,21.38
2022-07-28T23:41:59.647Z,21.26
2022-07-28T23:45:03.612Z,21.15
2022-07-28T23:48:07.621Z,21.05
2022-07-28T23:51:10.258Z,20.99
2022-07-28T23:54:14.623Z,20.87
2022-07-28T23:57:18.937Z,20.80
